Time;durP1;ratioP1;P1;durP2;ratioP2;P2;SDS_P1;SDS_P2;PMS_P1;PMS_P2;Temp;Humidity;BMP_temperature;BMP_pressure;BME280_temperature;BME280_humidity;BME280_pressure;Samples;Min_cycle;Max_cycle;Signal;HPM_P1;HPM_P2
2020/12/14 00:00:09;;;;;;;432.55;18.35;;;11.40;99.90;;;;;;5113243;28;20027;-76
2020/12/14 00:02:36;;;;;;;510.80;23.30;;;11.40;99.90;;;;;;5113120;28;20031;-76
2020/12/14 00:05:04;;;;;;;348.83;25.02;;;11.40;99.90;;;;;;5113560;28;20035;-74
2020/12/14 00:07:31;;;;;;;479.58;29.00;;;11.30;99.90;;;;;;5111566;28;20043;-74
2020/12/14 00:09:59;;;;;;;401.63;23.70;;;11.30;99.90;;;;;;5113605;28;20031;-74
2020/12/14 00:12:26;;;;;;;325.10;24.92;;;11.40;99.90;;;;;;5112967;28;20047;-75
2020/12/14 00:14:53;;;;;;;306.05;29.90;;;11.30;99.90;;;;;;5113244;28;20028;-75
2020/12/14 00:17:20;;;;;;;368.50;29.35;;;11.30;99.90;;;;;;5113333;28;20047;-75
2020/12/14 00:19:49;;;;;;;202.32;17.08;;;11.30;99.90;;;;;;5113346;28;20459;-75
2020/12/14 00:22:16;;;;;;;142.73;17.58;;;11.30;99.90;;;;;;5113218;28;20028;-74
2020/12/14 00:24:43;;;;;;;248.23;21.90;;;11.30;99.90;;;;;;5113031;28;20019;-75
2020/12/14 00:27:10;;;;;;;654.88;38.58;;;11.30;99.90;;;;;;5113227;28;20035;-74
2020/12/14 00:29:37;;;;;;;574.35;33.35;;;11.20;99.90;;;;;;5112351;28;20116;-75
2020/12/14 00:32:04;;;;;;;408.35;22.55;;;11.30;99.90;;;;;;5113148;28;20040;-75
2020/12/14 00:34:31;;;;;;;346.83;18.80;;;11.20;99.90;;;;;;5112869;28;20027;-74
2020/12/14 00:36:58;;;;;;;437.35;18.42;;;11.20;99.90;;;;;;5113150;28;20015;-75
2020/12/14 00:39:24;;;;;;;323.02;16.25;;;11.20;99.90;;;;;;5112613;28;20198;-74
2020/12/14 00:41:51;;;;;;;345.67;16.73;;;11.20;99.90;;;;;;5113066;28;20031;-76
2020/12/14 00:44:18;;;;;;;247.75;21.00;;;11.20;99.90;;;;;;5112019;28;20031;-74
2020/12/14 00:46:45;;;;;;;452.83;21.50;;;11.20;99.90;;;;;;5104645;28;20043;-76
2020/12/14 00:49:13;;;;;;;418.85;19.88;;;11.20;99.90;;;;;;5104401;28;20038;-75
2020/12/14 00:51:40;;;;;;;491.95;23.65;;;11.20;99.90;;;;;;5092022;28;20020;-74
2020/12/14 00:54:07;;;;;;;392.45;21.63;;;11.10;99.90;;;;;;5093111;28;20036;-74
2020/12/14 00:56:35;;;;;;;447.15;17.88;;;11.10;99.90;;;;;;5108274;28;20036;-75
2020/12/14 00:59:03;;;;;;;448.45;22.13;;;11.10;99.90;;;;;;5090962;28;20043;-73
2020/12/14 01:01:31;;;;;;;396.20;18.83;;;11.10;99.90;;;;;;5106427;28;20027;-74
2020/12/14 01:03:58;;;;;;;555.50;22.98;;;11.10;99.90;;;;;;5111357;28;20388;-74
2020/12/14 01:06:25;;;;;;;516.97;23.08;;;11.00;99.90;;;;;;5097953;28;20024;-75
2020/12/14 01:08:52;;;;;;;477.75;23.88;;;11.00;99.90;;;;;;5106380;28;20051;-75
2020/12/14 01:11:24;;;;;;;260.17;10.95;;;11.00;99.90;;;;;;5112029;28;20024;-72
2020/12/14 01:13:52;;;;;;;420.67;21.67;;;11.00;99.90;;;;;;5098630;28;20047;-73
2020/12/14 01:16:19;;;;;;;101.47;10.88;;;11.00;99.90;;;;;;5076844;28;20412;-75
2020/12/14 01:18:46;;;;;;;322.40;16.13;;;11.00;99.90;;;;;;5092529;28;20031;-75
2020/12/14 01:21:13;;;;;;;129.32;11.07;;;10.90;99.90;;;;;;5097857;28;20016;-73
2020/12/14 01:23:40;;;;;;;53.63;8.88;;;10.90;99.90;;;;;;5104656;28;20013;-75
2020/12/14 01:26:07;;;;;;;27.58;6.50;;;10.80;99.90;;;;;;5103327;28;20031;-74
2020/12/14 01:28:33;;;;;;;28.17;5.60;;;10.80;99.90;;;;;;5108534;28;20024;-75
2020/12/14 01:31:00;;;;;;;25.77;5.95;;;10.70;99.90;;;;;;5108891;28;20036;-74
2020/12/14 01:33:27;;;;;;;24.98;6.00;;;10.60;99.90;;;;;;5091226;28;20044;-74
2020/12/14 01:35:54;;;;;;;31.52;4.72;;;10.60;99.90;;;;;;5092855;28;20381;-74
2020/12/14 01:38:21;;;;;;;16.95;2.78;;;10.40;99.90;;;;;;5092795;28;20028;-75
2020/12/14 01:40:49;;;;;;;27.00;4.32;;;10.30;99.90;;;;;;5110546;28;20115;-72
2020/12/14 01:43:16;;;;;;;21.90;3.63;;;10.20;99.90;;;;;;5103828;28;20032;-74
2020/12/14 01:45:43;;;;;;;15.23;2.75;;;10.10;99.90;;;;;;5088932;28;20036;-73
2020/12/14 01:48:12;;;;;;;17.08;3.95;;;10.10;99.90;;;;;;5103313;28;20486;-72
2020/12/14 01:50:39;;;;;;;24.05;4.22;;;10.00;99.90;;;;;;5111068;28;20031;-72
2020/12/14 01:53:07;;;;;;;18.05;3.15;;;9.90;99.90;;;;;;5111045;28;20046;-73
2020/12/14 01:55:41;;;;;;;22.40;2.22;;;9.90;99.90;;;;;;5110130;28;20051;-73
2020/12/14 01:58:09;;;;;;;17.45;3.25;;;9.80;99.90;;;;;;5109249;28;20047;-72
2020/12/14 02:00:36;;;;;;;19.38;3.13;;;9.80;99.90;;;;;;5109901;28;20363;-73
2020/12/14 02:03:04;;;;;;;17.90;2.88;;;9.70;99.90;;;;;;5111079;28;20023;-73
2020/12/14 02:05:34;;;;;;;16.02;2.50;;;9.70;99.90;;;;;;5111050;28;20016;-73
2020/12/14 02:08:01;;;;;;;23.60;8.57;;;9.60;99.90;;;;;;5110958;28;20036;-73
2020/12/14 02:10:32;;;;;;;20.57;2.50;;;9.60;99.90;;;;;;5109974;28;20043;-73
2020/12/14 02:12:59;;;;;;;20.73;5.30;;;9.50;99.90;;;;;;5111033;28;20058;-74
2020/12/14 02:15:26;;;;;;;26.95;3.92;;;9.40;99.90;;;;;;5110949;28;20046;-73
2020/12/14 02:17:53;;;;;;;18.25;2.95;;;9.40;99.90;;;;;;5110919;28;20036;-73
2020/12/14 02:20:20;;;;;;;15.15;3.03;;;9.40;99.90;;;;;;5110903;28;20448;-73
2020/12/14 02:22:47;;;;;;;16.60;3.47;;;9.30;99.90;;;;;;5096996;28;20036;-72
2020/12/14 02:25:14;;;;;;;19.02;3.15;;;9.30;99.90;;;;;;5090913;28;20035;-73
2020/12/14 02:27:43;;;;;;;13.60;2.85;;;9.30;99.90;;;;;;5089003;28;20051;-72
2020/12/14 02:30:10;;;;;;;20.90;3.75;;;9.20;99.90;;;;;;5095791;28;20035;-72
2020/12/14 02:32:37;;;;;;;25.45;7.22;;;9.20;99.90;;;;;;5101332;28;20039;-72
2020/12/14 02:35:04;;;;;;;13.30;2.00;;;9.20;99.90;;;;;;5095375;28;20028;-73
2020/12/14 02:37:32;;;;;;;22.45;4.07;;;9.10;99.90;;;;;;5110729;28;20033;-72
2020/12/14 02:39:59;;;;;;;21.58;5.25;;;9.10;99.90;;;;;;5105759;28;20488;-73
2020/12/14 02:42:26;;;;;;;22.02;9.48;;;9.10;99.90;;;;;;5091395;28;20028;-73
2020/12/14 02:44:53;;;;;;;13.02;3.40;;;9.10;99.90;;;;;;5090234;28;20028;-73
2020/12/14 02:47:20;;;;;;;16.10;4.13;;;9.00;99.90;;;;;;5092119;28;20024;-74
2020/12/14 02:49:48;;;;;;;18.58;4.18;;;9.00;99.90;;;;;;5110525;28;20062;-73
2020/12/14 02:52:15;;;;;;;14.40;3.00;;;9.00;99.90;;;;;;5111157;28;20046;-74
2020/12/14 02:54:44;;;;;;;7.57;2.30;;;9.00;99.90;;;;;;5109098;28;20042;-74
2020/12/14 02:57:12;;;;;;;7.38;2.00;;;8.90;99.90;;;;;;5109497;28;20035;-72
2020/12/14 02:59:39;;;;;;;9.13;1.58;;;8.90;99.90;;;;;;5111071;28;20031;-74
2020/12/14 03:02:09;;;;;;;5.47;2.05;;;8.80;99.90;;;;;;5110131;28;20047;-74
2020/12/14 03:04:40;;;;;;;11.25;1.73;;;8.80;99.90;;;;;;5109668;28;20034;-72
2020/12/14 03:07:07;;;;;;;5.05;1.90;;;8.70;99.90;;;;;;5111648;28;20039;-73
2020/12/14 03:09:34;;;;;;;10.02;1.70;;;8.70;99.90;;;;;;5106160;28;20035;-73
2020/12/14 03:12:00;;;;;;;5.95;1.80;;;8.60;99.90;;;;;;5093692;28;20032;-73
2020/12/14 03:14:28;;;;;;;7.03;1.48;;;8.50;99.90;;;;;;5109967;28;20031;-74
2020/12/14 03:16:56;;;;;;;7.80;1.65;;;8.50;99.90;;;;;;5097436;28;20491;-73
2020/12/14 03:19:24;;;;;;;10.02;1.95;;;8.40;99.90;;;;;;5101013;28;20054;-74
2020/12/14 03:21:51;;;;;;;6.63;2.00;;;8.40;99.90;;;;;;5102142;28;20055;-73
2020/12/14 03:24:18;;;;;;;10.63;1.55;;;8.30;99.90;;;;;;5115170;28;20038;-73
2020/12/14 03:26:48;;;;;;;9.48;1.83;;;8.30;99.90;;;;;;5114796;28;20023;-75
2020/12/14 03:29:15;;;;;;;9.82;1.83;;;8.30;99.90;;;;;;5114248;28;20384;-74
2020/12/14 03:31:43;;;;;;;6.05;1.45;;;8.30;99.90;;;;;;5112375;28;20020;-74
2020/12/14 03:34:10;;;;;;;10.63;3.17;;;8.20;99.90;;;;;;5111573;28;20395;-74
2020/12/14 03:36:37;;;;;;;12.25;3.35;;;8.20;99.90;;;;;;5109521;28;20023;-74
2020/12/14 03:39:07;;;;;;;11.55;2.60;;;8.20;99.90;;;;;;5102536;28;20395;-73
2020/12/14 03:41:34;;;;;;;11.63;1.50;;;8.20;99.90;;;;;;5098008;28;20365;-75
2020/12/14 03:44:01;;;;;;;11.70;3.58;;;8.10;99.90;;;;;;5096219;28;20028;-75
2020/12/14 03:46:31;;;;;;;10.48;2.80;;;8.10;99.90;;;;;;5105779;28;20036;-73
2020/12/14 03:48:58;;;;;;;9.23;3.47;;;8.10;99.90;;;;;;5107258;28;20039;-74
2020/12/14 03:51:25;;;;;;;8.55;1.90;;;8.10;99.90;;;;;;5113007;28;20464;-74
2020/12/14 03:53:53;;;;;;;12.13;2.83;;;8.00;99.90;;;;;;5111666;28;20040;-74
2020/12/14 03:56:24;;;;;;;10.85;2.42;;;8.00;99.90;;;;;;5101747;28;20038;-74
2020/12/14 03:58:51;;;;;;;16.00;2.53;;;8.00;99.90;;;;;;5110350;28;20051;-74
2020/12/14 04:01:29;;;;;;;7.18;1.98;;;7.90;99.90;;;;;;5112861;28;20027;-74
2020/12/14 04:03:56;;;;;;;10.55;2.00;;;8.00;99.90;;;;;;5114250;28;20040;-74
2020/12/14 04:06:25;;;;;;;5.60;1.67;;;7.90;99.90;;;;;;5113816;28;20451;-75
2020/12/14 04:08:56;;;;;;;14.52;2.95;;;7.90;99.90;;;;;;5114669;28;20405;-74
2020/12/14 04:11:23;;;;;;;10.20;1.98;;;7.90;99.90;;;;;;5114250;28;20045;-73
2020/12/14 04:13:50;;;;;;;16.67;4.05;;;7.90;99.90;;;;;;5114131;28;20039;-75
2020/12/14 04:16:17;;;;;;;16.20;2.58;;;7.90;99.90;;;;;;5114058;28;20028;-74
2020/12/14 04:18:44;;;;;;;16.17;3.13;;;7.80;99.90;;;;;;5113012;28;20462;-74
2020/12/14 04:21:11;;;;;;;15.13;4.63;;;7.80;99.90;;;;;;5114152;28;20526;-75
2020/12/14 04:23:38;;;;;;;14.68;2.15;;;7.90;99.90;;;;;;5113731;28;20039;-74
2020/12/14 04:26:05;;;;;;;17.80;3.83;;;7.80;99.90;;;;;;5113924;28;20024;-75
2020/12/14 04:28:33;;;;;;;14.85;2.70;;;7.80;99.90;;;;;;5113840;28;20031;-74
2020/12/14 04:31:03;;;;;;;7.95;2.97;;;7.80;99.90;;;;;;5113788;28;20024;-75
2020/12/14 04:33:30;;;;;;;12.55;3.00;;;7.80;99.90;;;;;;5107245;28;20032;-74
2020/12/14 04:35:57;;;;;;;8.35;2.45;;;7.80;99.90;;;;;;5093941;28;20032;-75
2020/12/14 04:38:24;;;;;;;13.45;3.83;;;7.80;99.90;;;;;;5111863;28;20058;-74
2020/12/14 04:40:52;;;;;;;11.80;2.40;;;7.80;99.90;;;;;;5113634;28;20027;-74
2020/12/14 04:43:22;;;;;;;13.00;3.45;;;7.80;99.90;;;;;;5113250;28;20387;-74
2020/12/14 04:45:50;;;;;;;13.50;2.87;;;7.70;99.90;;;;;;5113041;28;20047;-75
2020/12/14 04:48:17;;;;;;;10.70;2.20;;;7.70;99.90;;;;;;5111769;28;20054;-74
2020/12/14 04:50:45;;;;;;;16.02;3.47;;;7.70;99.90;;;;;;5112275;28;20487;-74
2020/12/14 04:53:12;;;;;;;10.48;2.67;;;7.70;99.90;;;;;;5094591;28;20055;-74
2020/12/14 04:55:39;;;;;;;10.25;2.72;;;7.70;99.90;;;;;;5100645;28;20020;-75
2020/12/14 04:58:06;;;;;;;17.50;4.38;;;7.70;99.90;;;;;;5113041;28;20043;-75
2020/12/14 05:00:35;;;;;;;18.15;3.75;;;7.60;99.90;;;;;;5107443;28;20062;-74
2020/12/14 05:03:02;;;;;;;11.68;3.15;;;7.60;99.90;;;;;;5107771;28;20032;-74
2020/12/14 05:05:30;;;;;;;16.92;3.05;;;7.60;99.90;;;;;;5111060;28;20042;-74
2020/12/14 05:07:58;;;;;;;10.85;2.65;;;7.50;99.90;;;;;;5113259;28;20042;-74
2020/12/14 05:10:29;;;;;;;14.77;3.15;;;7.50;99.90;;;;;;5106638;28;20469;-75
2020/12/14 05:12:56;;;;;;;14.70;2.58;;;7.50;99.90;;;;;;5092868;28;20043;-73
2020/12/14 05:15:31;;;;;;;15.38;3.40;;;7.50;99.90;;;;;;5109668;28;20036;-75
2020/12/14 05:18:09;;;;;;;10.75;2.25;;;7.50;99.90;;;;;;5112434;28;20039;-74
2020/12/14 05:20:37;;;;;;;19.88;2.45;;;7.50;99.90;;;;;;5112593;28;20507;-75
2020/12/14 05:23:11;;;;;;;19.50;4.25;;;7.50;99.90;;;;;;5112788;28;20031;-75
2020/12/14 05:25:38;;;;;;;11.43;3.35;;;7.40;99.90;;;;;;5112939;28;20024;-75
2020/12/14 05:28:07;;;;;;;16.33;3.35;;;7.40;99.90;;;;;;5110945;28;20036;-75
2020/12/14 05:30:42;;;;;;;13.82;2.67;;;7.40;99.90;;;;;;5111855;27;20039;-75
2020/12/14 05:33:14;;;;;;;13.63;2.63;;;7.40;99.90;;;;;;5112598;28;20020;-74
2020/12/14 05:35:43;;;;;;;11.85;2.88;;;7.40;99.90;;;;;;5112594;28;20394;-73
2020/12/14 05:38:24;;;;;;;13.80;2.92;;;7.30;99.90;;;;;;5112343;28;20034;-75
2020/12/14 05:40:53;;;;;;;16.35;2.78;;;7.30;99.90;;;;;;5111208;28;20031;-73
2020/12/14 05:43:23;;;;;;;19.23;2.78;;;7.30;99.90;;;;;;5100594;28;20040;-75
2020/12/14 05:45:52;;;;;;;14.13;3.75;;;7.30;99.90;;;;;;5092213;28;20024;-75
2020/12/14 05:48:32;;;;;;;19.60;2.67;;;7.30;99.90;;;;;;5092223;28;20388;-80
2020/12/14 05:51:02;;;;;;;16.05;2.60;;;7.30;99.90;;;;;;5096715;28;20047;-84
2020/12/14 05:53:36;;;;;;;19.75;3.53;;;7.20;99.90;;;;;;5112467;28;20036;-82
2020/12/14 05:56:10;;;;;;;15.10;2.22;;;7.20;99.90;;;;;;5112246;28;20030;-77
2020/12/14 05:58:38;;;;;;;18.98;2.58;;;7.20;99.90;;;;;;5110630;28;20054;-79
2020/12/14 06:01:07;;;;;;;24.77;2.92;;;7.20;99.90;;;;;;5111784;28;20040;-81
2020/12/14 06:03:36;;;;;;;15.82;3.03;;;7.20;99.90;;;;;;5112335;28;20046;-81
2020/12/14 06:06:04;;;;;;;14.75;2.72;;;7.30;99.90;;;;;;5112445;28;20016;-80
2020/12/14 06:08:47;;;;;;;18.30;3.13;;;7.20;99.90;;;;;;5112374;28;20030;-81
2020/12/14 06:11:17;;;;;;;16.08;2.83;;;7.20;99.90;;;;;;5111832;28;20051;-79
2020/12/14 06:13:52;;;;;;;19.07;2.80;;;7.20;99.90;;;;;;5112302;28;20043;-82
2020/12/14 06:16:21;;;;;;;18.73;3.03;;;7.20;99.90;;;;;;5112189;28;20050;-80
2020/12/14 06:18:49;;;;;;;16.67;2.85;;;7.20;99.90;;;;;;5111832;28;20027;-77
2020/12/14 06:21:24;;;;;;;9.15;2.75;;;7.20;99.90;;;;;;5111984;28;20034;-81
2020/12/14 06:23:52;;;;;;;18.13;3.42;;;7.20;99.90;;;;;;5111642;28;20046;-81
2020/12/14 06:26:23;;;;;;;13.85;2.70;;;7.10;99.90;;;;;;5111496;28;20039;-79
2020/12/14 06:28:51;;;;;;;13.55;2.97;;;7.20;99.90;;;;;;5108600;28;20373;-81
2020/12/14 06:31:34;;;;;;;15.57;3.08;;;7.10;99.90;;;;;;5104440;28;20044;-80
2020/12/14 06:34:03;;;;;;;19.40;2.95;;;7.10;99.90;;;;;;5091241;28;20534;-80
2020/12/14 06:36:41;;;;;;;17.95;2.78;;;7.10;99.90;;;;;;5099295;28;20023;-80
2020/12/14 06:39:27;;;;;;;23.83;3.20;;;7.10;99.90;;;;;;5109960;28;20042;-80
2020/12/14 06:42:14;;;;;;;8.80;2.05;;;7.10;99.90;;;;;;5109685;28;20396;-80
2020/12/14 06:44:44;;;;;;;15.07;1.88;;;7.10;99.90;;;;;;5100634;28;20036;-81
2020/12/14 06:47:18;;;;;;;18.92;2.80;;;7.10;99.90;;;;;;5100596;28;20027;-80
2020/12/14 06:49:47;;;;;;;16.77;3.17;;;7.10;99.90;;;;;;5111913;28;20357;-81
2020/12/14 06:52:33;;;;;;;19.35;2.88;;;7.10;99.90;;;;;;5094971;28;20028;-80
2020/12/14 06:55:00;;;;;;;15.85;2.50;;;7.00;99.90;;;;;;5095461;28;20040;-80
2020/12/14 06:57:53;;;;;;;10.57;2.30;;;7.00;99.90;;;;;;5095193;28;20044;-81
2020/12/14 07:00:31;;;;;;;17.10;3.90;;;7.00;99.90;;;;;;5101531;28;20044;-80
2020/12/14 07:02:58;;;;;;;18.75;2.67;;;7.00;99.90;;;;;;5116070;28;20016;-81
2020/12/14 07:05:31;;;;;;;22.05;2.28;;;7.00;99.90;;;;;;5098711;28;20031;-81
2020/12/14 07:08:01;;;;;;;15.73;4.03;;;7.00;99.90;;;;;;5106852;28;20042;-81
2020/12/14 07:10:29;;;;;;;12.18;2.40;;;7.00;99.90;;;;;;5114392;28;20028;-81
2020/12/14 07:12:59;;;;;;;11.73;2.20;;;7.00;99.90;;;;;;5111686;28;20095;-81
2020/12/14 07:15:35;;;;;;;21.13;3.00;;;7.00;99.90;;;;;;5107748;28;20055;-80
2020/12/14 07:18:14;;;;;;;12.65;2.53;;;6.90;99.90;;;;;;5114580;28;20468;-77
2020/12/14 07:20:56;;;;;;;19.83;2.90;;;6.90;99.90;;;;;;5115556;28;20376;-80
2020/12/14 07:23:25;;;;;;;13.07;2.45;;;6.90;99.90;;;;;;5095375;28;20456;-80
2020/12/14 07:25:55;;;;;;;14.07;2.30;;;6.80;99.90;;;;;;5110037;28;20032;-82
2020/12/14 07:28:42;;;;;;;19.23;2.50;;;6.80;99.90;;;;;;5114285;28;20047;-82
2020/12/14 07:31:25;;;;;;;15.00;2.60;;;6.80;99.90;;;;;;5112831;28;20050;-76
2020/12/14 07:33:56;;;;;;;14.30;2.90;;;6.70;99.90;;;;;;5096849;28;20535;-77
2020/12/14 07:36:25;;;;;;;15.05;2.17;;;6.70;99.90;;;;;;5094836;28;20039;-77
2020/12/14 07:38:59;;;;;;;22.92;3.55;;;6.70;99.90;;;;;;5111772;28;20046;-80
2020/12/14 07:41:27;;;;;;;10.63;2.17;;;6.70;99.90;;;;;;5114765;28;20030;-78
2020/12/14 07:43:56;;;;;;;11.57;2.33;;;6.70;99.90;;;;;;5105132;28;20026;-79
2020/12/14 07:46:33;;;;;;;20.45;2.80;;;6.70;99.90;;;;;;5094435;28;20016;-80
2020/12/14 07:49:01;;;;;;;11.80;2.58;;;6.70;99.90;;;;;;5095051;28;20500;-77
2020/12/14 07:51:29;;;;;;;12.95;2.38;;;6.60;99.90;;;;;;5093802;28;20047;-79
2020/12/14 07:54:07;;;;;;;14.32;2.97;;;6.50;99.90;;;;;;5105119;28;20048;-77
2020/12/14 07:56:44;;;;;;;13.55;2.08;;;6.50;99.90;;;;;;5093911;28;20396;-79
2020/12/14 07:59:22;;;;;;;16.65;2.15;;;6.50;99.90;;;;;;5095268;28;20048;-78
2020/12/14 08:01:50;;;;;;;19.27;2.78;;;6.50;99.90;;;;;;5094091;28;20464;-79
2020/12/14 08:04:22;;;;;;;9.27;2.28;;;6.50;99.90;;;;;;5100662;28;20035;-79
2020/12/14 08:06:49;;;;;;;;;;;6.40;99.90;;;;;;5094519;28;20058;-78
2020/12/14 08:09:19;;;;;;;16.55;2.30;;;6.40;99.90;;;;;;5108402;28;19904;-78
2020/12/14 08:11:47;;;;;;;19.75;2.92;;;6.40;99.90;;;;;;5093823;28;20044;-79
2020/12/14 08:14:21;;;;;;;24.45;2.65;;;6.30;99.90;;;;;;5094674;28;20043;-78
2020/12/14 08:16:48;;;;;;;11.65;2.05;;;6.30;99.90;;;;;;5092909;28;20036;-81
2020/12/14 08:19:21;;;;;;;15.82;1.77;;;6.20;99.90;;;;;;5111152;28;20467;-82
2020/12/14 08:22:06;;;;;;;12.65;2.47;;;6.30;99.90;;;;;;5114276;28;20408;-82
2020/12/14 08:24:34;;;;;;;14.75;1.52;;;6.40;99.90;;;;;;5108299;28;20027;-80
2020/12/14 08:27:11;;;;;;;14.23;3.17;;;6.40;99.90;;;;;;5093491;28;20388;-79
2020/12/14 08:29:58;;;;;;;11.57;1.27;;;6.50;99.90;;;;;;5097989;28;20024;-79
2020/12/14 08:32:24;;;;;;;11.68;1.40;;;6.50;99.90;;;;;;5114235;28;20483;-81
2020/12/14 08:34:51;;;;;;;12.13;1.75;;;6.50;99.90;;;;;;5110844;28;20050;-79
2020/12/14 08:37:19;;;;;;;10.35;1.73;;;6.50;99.90;;;;;;5113498;28;20036;-80
2020/12/14 08:40:01;;;;;;;7.28;1.10;;;6.40;99.90;;;;;;5111735;28;20236;-84
2020/12/14 08:42:29;;;;;;;;;;;6.40;99.90;;;;;;5114253;28;20039;-79
2020/12/14 08:45:27;;;;;;;6.00;1.20;;;6.50;99.90;;;;;;5099441;28;19912;-85
2020/12/14 08:48:00;;;;;;;13.38;1.50;;;6.50;99.90;;;;;;5030100;28;20053;-80
2020/12/14 08:50:30;;;;;;;7.63;1.63;;;6.50;99.90;;;;;;5030428;28;20053;-80
2020/12/14 08:53:03;;;;;;;4.68;1.08;;;6.50;99.90;;;;;;5029853;28;20045;-80
2020/12/14 08:55:40;;;;;;;8.27;1.00;;;6.50;99.90;;;;;;5027632;28;20046;-81
2020/12/14 08:58:08;;;;;;;10.73;1.23;;;6.60;99.90;;;;;;5017547;28;20049;-81
2020/12/14 09:00:35;;;;;;;7.97;1.35;;;6.60;99.90;;;;;;5011071;28;20037;-80
2020/12/14 09:03:03;;;;;;;11.25;1.35;;;6.60;99.90;;;;;;5010453;28;20052;-83
2020/12/14 09:05:36;;;;;;;8.48;0.90;;;6.60;99.90;;;;;;5012499;28;20061;-79
2020/12/14 09:08:14;;;;;;;10.15;1.33;;;6.80;99.90;;;;;;5010408;28;20042;-81
2020/12/14 09:10:41;;;;;;;10.57;1.10;;;6.80;99.90;;;;;;5011350;28;20049;-85
2020/12/14 09:13:08;;;;;;;5.97;0.90;;;6.80;99.90;;;;;;5010935;28;20037;-79
2020/12/14 09:15:35;;;;;;;6.15;1.00;;;6.70;99.90;;;;;;5017318;28;20402;-81
2020/12/14 09:18:04;;;;;;;6.63;0.95;;;6.60;99.90;;;;;;5025870;28;20419;-77
2020/12/14 09:20:32;;;;;;;7.13;1.15;;;6.70;99.90;;;;;;5012485;28;20037;-78
2020/12/14 09:22:59;;;;;;;4.10;0.88;;;6.80;99.90;;;;;;5025750;28;20478;-78
2020/12/14 09:25:27;;;;;;;12.02;1.63;;;6.80;99.90;;;;;;5090266;28;20032;-77
2020/12/14 09:27:54;;;;;;;7.55;1.48;;;6.70;99.90;;;;;;5102910;28;20036;-78
2020/12/14 09:30:20;;;;;;;4.13;0.90;;;6.70;99.90;;;;;;5111253;28;20030;-78
2020/12/14 09:32:48;;;;;;;11.77;1.73;;;6.80;99.90;;;;;;5101537;28;20039;-77
2020/12/14 09:35:14;;;;;;;8.82;1.52;;;6.70;99.90;;;;;;5092518;28;20035;-78
2020/12/14 09:37:41;;;;;;;10.77;1.42;;;6.70;99.90;;;;;;5092455;28;20020;-77
2020/12/14 09:40:08;;;;;;;9.38;1.30;;;6.70;99.90;;;;;;5092234;28;20031;-77
2020/12/14 09:42:35;;;;;;;8.32;1.50;;;6.70;99.90;;;;;;5092301;28;20032;-77
2020/12/14 09:45:05;;;;;;;6.63;1.45;;;6.60;99.90;;;;;;5095348;28;20040;-77
2020/12/14 09:47:32;;;;;;;11.85;2.70;;;6.60;99.90;;;;;;5101731;28;20031;-78
2020/12/14 09:50:03;;;;;;;13.38;1.48;;;6.60;99.90;;;;;;5092094;28;20028;-77
2020/12/14 09:52:30;;;;;;;5.75;1.30;;;6.60;99.90;;;;;;5093581;28;20024;-77
2020/12/14 09:54:57;;;;;;;9.77;1.10;;;6.60;99.90;;;;;;5110284;28;20396;-78
2020/12/14 09:57:24;;;;;;;7.60;0.93;;;6.60;99.90;;;;;;5112278;28;20031;-79
2020/12/14 09:59:51;;;;;;;5.47;1.23;;;6.70;99.90;;;;;;5096434;28;20488;-82
2020/12/14 10:02:18;;;;;;;8.48;1.25;;;6.70;99.90;;;;;;5092365;28;20051;-80
2020/12/14 10:04:45;;;;;;;5.78;1.10;;;6.70;99.90;;;;;;5098558;28;20031;-78
2020/12/14 10:07:12;;;;;;;9.07;1.20;;;6.70;99.90;;;;;;5112468;28;20024;-77
2020/12/14 10:09:39;;;;;;;8.50;1.00;;;6.70;99.90;;;;;;5106206;28;20039;-77
2020/12/14 10:12:06;;;;;;;6.82;1.48;;;6.70;99.90;;;;;;5112179;28;20027;-79
2020/12/14 10:14:33;;;;;;;5.65;0.90;;;6.70;99.90;;;;;;5099351;28;20055;-77
2020/12/14 10:17:00;;;;;;;5.28;1.00;;;6.70;99.90;;;;;;5090951;28;20028;-78
2020/12/14 10:19:26;;;;;;;7.53;1.33;;;6.70;99.90;;;;;;5101122;28;20024;-77
2020/12/14 10:21:53;;;;;;;8.30;1.50;;;6.70;99.90;;;;;;5109700;28;20042;-77
2020/12/14 10:24:20;;;;;;;9.50;2.10;;;6.70;99.90;;;;;;5111735;28;20073;-78
2020/12/14 10:26:49;;;;;;;8.88;1.40;;;6.60;99.90;;;;;;5107959;28;20024;-77
2020/12/14 10:29:17;;;;;;;7.05;1.23;;;6.60;99.90;;;;;;5092031;28;20043;-78
2020/12/14 10:31:48;;;;;;;7.60;1.27;;;6.60;99.90;;;;;;5094977;28;20039;-77
2020/12/14 10:34:15;;;;;;;5.70;0.82;;;6.60;99.90;;;;;;5102967;28;20031;-80
2020/12/14 10:36:46;;;;;;;9.18;2.60;;;6.60;99.90;;;;;;5111460;28;20032;-80
2020/12/14 10:39:13;;;;;;;7.85;1.73;;;6.60;99.90;;;;;;5111529;28;20031;-78
2020/12/14 10:41:40;;;;;;;6.55;1.73;;;6.60;99.90;;;;;;5100786;28;20024;-79
2020/12/14 10:44:07;;;;;;;7.20;1.58;;;6.60;99.90;;;;;;5091630;28;20027;-79
2020/12/14 10:46:34;;;;;;;4.88;0.90;;;6.60;99.90;;;;;;5111632;28;20036;-78
2020/12/14 10:49:01;;;;;;;5.28;0.98;;;6.60;99.90;;;;;;5110687;28;20032;-79
2020/12/14 10:51:28;;;;;;;6.60;1.00;;;6.50;99.90;;;;;;5092571;28;20031;-77
2020/12/14 10:53:55;;;;;;;7.70;1.23;;;6.40;99.90;;;;;;5091202;28;20035;-79
2020/12/14 10:56:22;;;;;;;4.38;0.73;;;6.60;99.90;;;;;;5110592;28;20035;-83
2020/12/14 10:58:49;;;;;;;10.57;1.02;;;6.50;99.90;;;;;;5114520;28;20656;-81
2020/12/14 11:01:16;;;;;;;4.47;1.23;;;6.60;99.90;;;;;;5095678;28;20047;-85
2020/12/14 11:03:43;;;;;;;5.47;1.33;;;6.70;99.90;;;;;;5093018;28;20052;-81
2020/12/14 11:06:10;;;;;;;5.43;0.80;;;6.70;99.90;;;;;;5091896;28;20032;-82
2020/12/14 11:08:37;;;;;;;8.60;1.02;;;6.80;99.90;;;;;;5107003;28;20028;-85
2020/12/14 11:11:04;;;;;;;3.47;0.60;;;6.80;99.90;;;;;;5092803;28;20029;-85
2020/12/14 11:13:31;;;;;;;3.00;0.70;;;6.80;99.90;;;;;;5102209;28;20039;-82
2020/12/14 11:16:00;;;;;;;8.32;1.15;;;6.90;99.90;;;;;;5109871;28;20046;-84
2020/12/14 11:18:27;;;;;;;5.05;0.80;;;6.80;99.90;;;;;;5110116;28;20412;-84
2020/12/14 11:20:54;;;;;;;11.93;1.30;;;6.80;99.90;;;;;;5095772;28;20504;-81
2020/12/14 11:23:21;;;;;;;4.57;0.70;;;6.90;99.90;;;;;;5096018;28;20036;-83
2020/12/14 11:25:48;;;;;;;4.45;1.05;;;6.80;99.90;;;;;;5111842;28;20031;-81
2020/12/14 11:28:14;;;;;;;7.80;0.95;;;6.70;99.90;;;;;;5095956;28;20035;-86
2020/12/14 11:30:41;;;;;;;9.10;0.90;;;6.70;99.90;;;;;;5096975;28;20024;-85
2020/12/14 11:33:08;;;;;;;7.10;1.75;;;6.70;99.90;;;;;;5094865;28;20032;-85
2020/12/14 11:35:35;;;;;;;3.67;0.90;;;6.70;99.90;;;;;;5110368;28;20035;-84
2020/12/14 11:38:02;;;;;;;12.85;1.63;;;6.70;99.90;;;;;;5114477;28;20039;-84
2020/12/14 11:40:29;;;;;;;4.90;0.90;;;6.70;99.90;;;;;;5105846;28;20030;-83
2020/12/14 11:42:56;;;;;;;4.53;0.80;;;6.60;99.90;;;;;;5117388;28;20024;-82
2020/12/14 11:45:23;;;;;;;8.85;0.90;;;6.60;99.90;;;;;;5115168;28;20475;-84
2020/12/14 11:47:50;;;;;;;4.80;1.00;;;6.60;99.90;;;;;;5116261;28;20024;-81
2020/12/14 11:50:17;;;;;;;4.00;0.75;;;6.70;99.90;;;;;;5099175;28;20412;-81
2020/12/14 11:52:45;;;;;;;9.20;1.20;;;6.60;99.90;;;;;;5094676;28;20351;-81
2020/12/14 11:55:13;;;;;;;4.35;0.70;;;6.60;99.90;;;;;;5104979;28;20051;-79
2020/12/14 11:57:40;;;;;;;5.93;0.68;;;6.50;99.90;;;;;;5113825;28;20039;-78
2020/12/14 12:00:09;;;;;;;9.65;1.73;;;6.40;99.90;;;;;;5094159;28;20043;-81
2020/12/14 12:02:36;;;;;;;9.63;1.45;;;6.30;99.90;;;;;;5094333;28;20016;-80
2020/12/14 12:05:03;;;;;;;6.05;1.02;;;6.50;99.90;;;;;;5105304;28;20052;-81
2020/12/14 12:07:30;;;;;;;8.40;1.08;;;6.50;99.90;;;;;;5107789;28;20023;-79
2020/12/14 12:09:58;;;;;;;8.07;1.00;;;6.60;99.90;;;;;;5114070;28;20193;-80
2020/12/14 12:12:25;;;;;;;4.50;0.70;;;6.50;99.90;;;;;;5114364;28;20027;-80
2020/12/14 12:14:51;;;;;;;5.93;1.45;;;6.50;99.90;;;;;;5114396;28;20348;-80
2020/12/14 12:17:21;;;;;;;7.28;1.20;;;6.50;99.90;;;;;;5114053;28;20058;-83
2020/12/14 12:19:48;;;;;;;5.55;1.23;;;6.60;99.90;;;;;;5113653;28;20043;-82
2020/12/14 12:22:15;;;;;;;12.07;1.10;;;6.60;99.90;;;;;;5115729;28;20464;-81
2020/12/14 12:24:42;;;;;;;8.32;0.93;;;6.60;99.90;;;;;;5114096;28;20043;-81
2020/12/14 12:27:09;;;;;;;8.23;1.65;;;6.70;99.90;;;;;;5114756;28;20363;-78
2020/12/14 12:29:36;;;;;;;11.27;2.17;;;6.70;99.90;;;;;;5114552;28;20494;-79
2020/12/14 12:32:03;;;;;;;9.52;1.00;;;6.70;99.90;;;;;;5114150;28;20046;-77
2020/12/14 12:34:31;;;;;;;7.22;0.90;;;6.70;99.90;;;;;;5114063;28;20036;-79
2020/12/14 12:37:00;;;;;;;7.95;0.82;;;6.70;99.90;;;;;;5113851;28;20031;-79
2020/12/14 12:39:28;;;;;;;6.75;0.80;;;6.80;99.90;;;;;;5113541;28;20024;-79
2020/12/14 12:41:56;;;;;;;9.38;1.65;;;6.70;99.90;;;;;;5114037;28;21162;-80
2020/12/14 12:44:23;;;;;;;6.72;1.15;;;6.70;99.90;;;;;;5113662;28;20036;-82
2020/12/14 12:46:50;;;;;;;12.45;1.30;;;6.60;99.90;;;;;;5113802;28;20043;-77
2020/12/14 12:49:17;;;;;;;8.05;1.40;;;6.50;99.90;;;;;;5111972;28;20043;-77
2020/12/14 12:51:48;;;;;;;5.03;1.00;;;6.50;99.90;;;;;;5114149;28;20046;-79
2020/12/14 12:54:17;;;;;;;8.75;0.88;;;6.60;99.90;;;;;;5113542;28;20055;-76
2020/12/14 12:56:44;;;;;;;5.20;0.80;;;6.50;99.90;;;;;;5114306;28;20031;-77